Time;durP1;ratioP1;P1;durP2;ratioP2;P2;SDS_P1;SDS_P2;PMS_P1;PMS_P2;Temp;Humidity;BMP_temperature;BMP_pressure;BME280_temperature;BME280_humidity;BME280_pressure;Samples;Min_cycle;Max_cycle;Signal;HPM_P1;HPM_P2
2022/11/21 00:00:24;;;;;;;18.80;12.47;;;0.10;99.90;;;;;;5039542;28;20197;-54
2022/11/21 00:02:50;;;;;;;20.70;13.53;;;0.10;99.90;;;;;;5037269;28;20195;-55
2022/11/21 00:05:16;;;;;;;22.33;13.13;;;0.20;99.90;;;;;;5038925;28;20214;-55
2022/11/21 00:07:44;;;;;;;19.13;14.00;;;0.20;99.90;;;;;;5039187;28;20218;-54
2022/11/21 00:10:10;;;;;;;17.47;12.83;;;0.20;99.90;;;;;;5040051;28;20204;-55
2022/11/21 00:12:36;;;;;;;24.03;14.20;;;0.30;99.90;;;;;;5038742;28;20218;-55
2022/11/21 00:15:02;;;;;;;17.50;12.03;;;0.30;99.90;;;;;;5038978;28;20744;-54
2022/11/21 00:17:27;;;;;;;20.17;13.10;;;0.30;99.90;;;;;;5038641;28;20197;-55
2022/11/21 00:19:53;;;;;;;21.67;13.87;;;0.40;99.90;;;;;;5039108;28;20195;-55
2022/11/21 00:22:18;;;;;;;20.57;13.43;;;0.40;99.90;;;;;;5038921;28;20273;-55
2022/11/21 00:24:43;;;;;;;18.37;13.30;;;0.40;99.90;;;;;;5039035;28;20231;-56
2022/11/21 00:27:09;;;;;;;17.67;13.23;;;0.40;99.90;;;;;;5038984;28;20200;-55
2022/11/21 00:29:34;;;;;;;22.27;14.57;;;0.50;99.90;;;;;;5037208;28;20206;-55
2022/11/21 00:32:00;;;;;;;23.50;14.30;;;0.50;99.90;;;;;;5038913;28;20641;-55
2022/11/21 00:34:25;;;;;;;20.70;13.57;;;0.50;99.90;;;;;;5038657;28;20342;-55
2022/11/21 00:36:51;;;;;;;18.80;12.97;;;0.50;99.90;;;;;;5039181;28;20640;-55
2022/11/21 00:39:16;;;;;;;19.43;14.23;;;0.50;99.90;;;;;;5037842;28;20211;-55
2022/11/21 00:41:42;;;;;;;17.00;12.57;;;0.50;99.90;;;;;;5040415;28;20197;-56
2022/11/21 00:44:07;;;;;;;18.10;13.20;;;0.50;99.90;;;;;;5036524;28;20748;-55
2022/11/21 00:46:33;;;;;;;19.53;13.50;;;0.60;99.90;;;;;;5038899;28;20207;-55
2022/11/21 00:48:58;;;;;;;20.87;14.27;;;0.60;99.90;;;;;;5038768;28;20189;-55
2022/11/21 00:51:24;;;;;;;18.33;13.37;;;0.60;99.90;;;;;;5038538;28;20255;-55
2022/11/21 00:53:49;;;;;;;19.13;13.17;;;0.60;99.90;;;;;;5038400;28;20247;-56
2022/11/21 00:56:15;;;;;;;17.93;12.93;;;0.60;99.90;;;;;;5038443;28;20244;-56
2022/11/21 00:58:41;;;;;;;19.43;13.30;;;0.60;99.90;;;;;;5036490;28;20229;-56
2022/11/21 01:01:10;;;;;;;20.57;13.77;;;0.70;99.90;;;;;;5038374;28;20213;-55
2022/11/21 01:03:36;;;;;;;17.30;13.20;;;0.70;99.90;;;;;;5038324;28;20217;-56
2022/11/21 01:06:13;;;;;;;18.20;13.67;;;0.70;99.90;;;;;;5036612;28;20805;-55
2022/11/21 01:08:40;;;;;;;18.50;12.87;;;0.80;99.90;;;;;;5037948;28;20210;-56
2022/11/21 01:11:15;;;;;;;19.37;12.87;;;0.80;99.90;;;;;;5038027;28;20210;-55
2022/11/21 01:13:41;;;;;;;22.37;14.00;;;0.80;99.90;;;;;;5036112;28;20655;-55
2022/11/21 01:16:10;;;;;;;19.20;12.93;;;0.80;99.90;;;;;;5037105;28;20285;-55
2022/11/21 01:18:36;;;;;;;18.53;14.70;;;0.80;99.90;;;;;;5036967;28;20241;-55
2022/11/21 01:21:06;;;;;;;17.00;12.80;;;0.90;99.90;;;;;;5037896;28;20195;-54
2022/11/21 01:23:32;;;;;;;17.20;13.17;;;0.90;99.90;;;;;;5037826;28;20207;-54
2022/11/21 01:26:05;;;;;;;18.17;13.60;;;0.90;99.90;;;;;;5036633;28;20196;-54
2022/11/21 01:28:31;;;;;;;15.43;12.80;;;0.90;99.90;;;;;;5037628;28;20217;-54
2022/11/21 01:31:11;;;;;;;20.33;13.37;;;0.80;99.90;;;;;;5037308;28;20241;-54
2022/11/21 01:33:37;;;;;;;19.30;13.40;;;1.00;99.90;;;;;;5037793;28;20221;-55
2022/11/21 01:36:08;;;;;;;21.13;14.03;;;1.00;99.90;;;;;;5037547;28;20599;-54
2022/11/21 01:38:33;;;;;;;19.60;14.47;;;1.00;99.90;;;;;;5038567;28;20308;-55
2022/11/21 01:40:59;;;;;;;18.87;13.40;;;0.90;99.90;;;;;;5035448;28;20295;-54
2022/11/21 01:43:24;;;;;;;17.47;12.13;;;1.00;99.90;;;;;;5037312;28;20225;-54
2022/11/21 01:45:55;;;;;;;19.20;13.40;;;0.90;99.90;;;;;;5037316;28;20218;-55
2022/11/21 01:48:44;;;;;;;19.30;13.57;;;0.90;99.90;;;;;;5037120;28;20274;-54
2022/11/21 01:51:38;;;;;;;17.77;12.40;;;0.90;99.90;;;;;;5036049;28;20377;-55
2022/11/21 01:54:13;;;;;;;20.00;13.63;;;0.90;99.90;;;;;;5037137;28;20725;-55
2022/11/21 01:56:58;;;;;;;18.07;13.53;;;0.90;99.90;;;;;;5035571;28;20212;-55
2022/11/21 01:59:32;;;;;;;18.63;13.63;;;0.90;99.90;;;;;;5036657;28;20284;-54
2022/11/21 02:02:00;;;;;;;19.87;13.83;;;0.80;99.90;;;;;;5028352;28;20695;-55
2022/11/21 02:04:28;;;;;;;20.47;13.97;;;0.80;99.90;;;;;;5036978;28;20758;-54
2022/11/21 02:06:53;;;;;;;18.67;13.30;;;0.80;99.90;;;;;;5037113;28;20201;-55
2022/11/21 02:09:20;;;;;;;17.83;13.77;;;0.80;99.90;;;;;;5036586;28;20217;-56
2022/11/21 02:11:51;;;;;;;16.67;13.57;;;0.90;99.90;;;;;;5036857;28;20213;-55
2022/11/21 02:14:17;;;;;;;21.23;14.83;;;0.90;99.90;;;;;;5036705;28;20197;-55
2022/11/21 02:16:42;;;;;;;19.03;13.53;;;0.90;99.90;;;;;;5037077;28;20530;-55
2022/11/21 02:19:14;;;;;;;18.60;13.93;;;0.90;99.90;;;;;;5036860;28;20668;-55
2022/11/21 02:21:54;;;;;;;21.20;14.13;;;0.90;99.90;;;;;;5034780;28;20228;-54
2022/11/21 02:24:35;;;;;;;20.00;12.77;;;0.90;99.90;;;;;;5036619;28;20674;-55
2022/11/21 02:27:01;;;;;;;17.00;13.27;;;0.90;99.90;;;;;;5036528;28;20540;-54
2022/11/21 02:29:27;;;;;;;17.87;12.90;;;0.90;99.90;;;;;;5036537;28;20272;-54
2022/11/21 02:31:52;;;;;;;25.30;14.10;;;1.00;99.90;;;;;;5036721;28;20232;-54
2022/11/21 02:34:18;;;;;;;17.33;12.63;;;0.90;99.90;;;;;;5036479;28;20247;-54
2022/11/21 02:36:45;;;;;;;21.50;14.17;;;0.90;99.90;;;;;;5036574;28;20308;-54
2022/11/21 02:39:18;;;;;;;16.77;12.37;;;0.90;99.90;;;;;;5034452;28;20254;-54
2022/11/21 02:42:04;;;;;;;17.57;12.90;;;1.00;99.90;;;;;;5035574;28;20240;-54
2022/11/21 02:44:41;;;;;;;19.37;13.80;;;1.00;99.90;;;;;;5020970;28;20207;-54
2022/11/21 02:47:06;;;;;;;20.27;13.77;;;1.00;99.90;;;;;;5037299;28;20199;-55
2022/11/21 02:49:46;;;;;;;22.53;13.47;;;1.00;99.90;;;;;;5035473;28;20205;-54
2022/11/21 02:52:11;;;;;;;16.07;12.63;;;1.00;99.90;;;;;;5036192;28;20223;-54
2022/11/21 02:54:37;;;;;;;17.67;12.70;;;1.00;99.90;;;;;;5036329;28;20217;-54
2022/11/21 02:57:02;;;;;;;16.33;12.90;;;1.00;99.90;;;;;;5035959;28;20257;-55
2022/11/21 02:59:28;;;;;;;19.87;13.87;;;1.10;99.90;;;;;;5034302;28;20201;-54
2022/11/21 03:01:56;;;;;;;18.70;13.03;;;1.10;99.90;;;;;;5036143;28;20771;-54
2022/11/21 03:04:21;;;;;;;20.77;13.73;;;1.10;99.90;;;;;;5036357;28;20208;-54
2022/11/21 03:06:47;;;;;;;16.23;12.87;;;1.10;99.90;;;;;;5036347;28;20187;-54
2022/11/21 03:09:12;;;;;;;19.97;13.93;;;1.10;99.90;;;;;;5035172;28;20217;-54
2022/11/21 03:11:38;;;;;;;19.70;13.03;;;1.10;99.90;;;;;;5036097;28;20564;-54
2022/11/21 03:14:03;;;;;;;16.37;13.53;;;1.10;99.90;;;;;;5035959;28;20209;-55
2022/11/21 03:16:29;;;;;;;21.23;15.37;;;1.00;99.90;;;;;;5036172;28;20197;-54
2022/11/21 03:18:54;;;;;;;22.20;14.13;;;1.00;99.90;;;;;;5035813;28;20210;-54
2022/11/21 03:21:20;;;;;;;16.17;12.87;;;1.00;99.90;;;;;;5036276;28;20607;-54
2022/11/21 03:23:45;;;;;;;20.53;14.20;;;1.00;99.90;;;;;;5034514;28;20194;-54
2022/11/21 03:26:11;;;;;;;18.30;12.80;;;1.10;99.90;;;;;;5035798;28;20676;-54
2022/11/21 03:28:36;;;;;;;22.73;14.33;;;1.10;99.90;;;;;;5036345;28;20581;-54
2022/11/21 03:31:02;;;;;;;21.53;15.97;;;1.10;99.90;;;;;;5033894;28;20342;-54
2022/11/21 03:33:27;;;;;;;24.07;14.73;;;1.10;99.90;;;;;;5030625;28;20209;-54
2022/11/21 03:35:53;;;;;;;16.90;12.47;;;1.10;99.90;;;;;;5027424;28;20203;-54
2022/11/21 03:38:18;;;;;;;18.93;13.13;;;1.10;99.90;;;;;;5035341;28;20223;-54
2022/11/21 03:40:44;;;;;;;19.30;13.50;;;1.10;99.90;;;;;;5036116;28;20203;-53
2022/11/21 03:43:09;;;;;;;18.73;13.40;;;1.10;99.90;;;;;;5036045;28;20203;-54
2022/11/21 03:45:35;;;;;;;21.20;15.23;;;1.10;99.90;;;;;;5035991;28;20204;-54
2022/11/21 03:48:00;;;;;;;16.17;13.63;;;1.00;99.90;;;;;;5027167;28;20206;-53
2022/11/21 03:50:26;;;;;;;17.77;14.03;;;1.00;99.90;;;;;;5024874;28;20206;-58
2022/11/21 03:52:51;;;;;;;20.30;13.77;;;1.00;99.90;;;;;;5024796;28;20247;-56
2022/11/21 03:55:17;;;;;;;19.50;13.93;;;1.00;99.90;;;;;;5025833;28;20748;-55
2022/11/21 04:01:12;;;;;;;20.13;14.47;;;0.90;99.90;;;;;;5040512;28;20254;-55
2022/11/21 04:03:40;;;;;;;21.20;14.47;;;0.90;99.90;;;;;;5035855;28;20210;-55
2022/11/21 04:06:06;;;;;;;16.97;12.97;;;0.90;99.90;;;;;;5033206;28;20212;-55
2022/11/21 04:08:31;;;;;;;18.33;13.30;;;0.90;99.90;;;;;;5035547;28;20252;-55
2022/11/21 04:10:57;;;;;;;19.17;13.73;;;0.80;99.90;;;;;;5035675;28;20221;-55
2022/11/21 04:13:23;;;;;;;21.17;13.73;;;0.90;99.90;;;;;;5036872;28;20809;-55
2022/11/21 04:15:48;;;;;;;21.83;13.57;;;1.00;99.90;;;;;;5039435;28;20212;-55
2022/11/21 04:18:14;;;;;;;18.03;14.00;;;1.00;99.90;;;;;;5039122;28;20563;-56
2022/11/21 04:20:39;;;;;;;17.13;14.33;;;1.00;99.90;;;;;;5037948;28;20213;-56
2022/11/21 04:23:05;;;;;;;19.13;14.90;;;1.10;99.90;;;;;;5039275;28;20221;-55
2022/11/21 04:25:31;;;;;;;19.50;14.10;;;1.10;99.90;;;;;;5039270;28;20703;-55
2022/11/21 04:28:01;;;;;;;22.20;14.60;;;1.20;99.90;;;;;;5039218;28;20203;-55
2022/11/21 04:30:28;;;;;;;20.17;15.00;;;1.20;99.90;;;;;;5039636;28;20199;-55
2022/11/21 04:32:54;;;;;;;18.37;14.80;;;1.20;99.90;;;;;;5037220;28;20362;-55
2022/11/21 04:35:21;;;;;;;21.13;13.63;;;1.20;99.90;;;;;;5040856;28;20203;-55
2022/11/21 04:37:46;;;;;;;18.40;14.13;;;1.20;99.90;;;;;;5037212;28;20678;-54
2022/11/21 04:40:13;;;;;;;24.27;15.47;;;1.30;99.90;;;;;;5039293;28;20233;-56
2022/11/21 04:42:45;;;;;;;20.07;13.97;;;1.30;99.90;;;;;;5038702;28;20209;-60
2022/11/21 04:45:12;;;;;;;18.60;12.77;;;1.30;99.90;;;;;;5038741;28;20240;-58
2022/11/21 04:47:38;;;;;;;24.20;15.47;;;1.30;99.90;;;;;;5037429;28;20228;-58
2022/11/21 04:50:05;;;;;;;20.53;14.20;;;1.20;99.90;;;;;;5038952;28;20214;-55
2022/11/21 04:52:31;;;;;;;20.13;14.87;;;1.20;99.90;;;;;;5038563;28;20221;-55
2022/11/21 04:54:56;;;;;;;22.83;15.50;;;1.10;99.90;;;;;;5038326;28;20672;-55
2022/11/21 04:57:22;;;;;;;20.87;14.80;;;1.10;99.90;;;;;;5036523;28;20227;-55
2022/11/21 04:59:47;;;;;;;20.00;15.13;;;1.00;99.90;;;;;;5038300;28;20600;-55
2022/11/21 05:02:13;;;;;;;21.07;14.73;;;1.00;99.90;;;;;;5038001;28;20200;-55
2022/11/21 05:04:39;;;;;;;17.67;13.40;;;0.90;99.90;;;;;;5038401;28;20608;-55
2022/11/21 05:07:04;;;;;;;20.03;14.73;;;0.90;99.90;;;;;;5038458;28;20212;-55
2022/11/21 05:09:30;;;;;;;21.53;15.10;;;0.80;99.90;;;;;;5037791;28;20200;-55
2022/11/21 05:14:40;;;;;;;19.53;15.17;;;0.90;99.90;;;;;;5038576;28;20316;-55
2022/11/21 05:17:05;;;;;;;22.90;15.83;;;0.90;99.90;;;;;;5038232;28;20234;-55
2022/11/21 05:19:30;;;;;;;21.43;16.13;;;0.90;99.90;;;;;;5035992;28;20197;-55
2022/11/21 05:21:56;;;;;;;23.83;17.17;;;0.90;99.90;;;;;;5037895;28;20196;-56
2022/11/21 05:24:21;;;;;;;20.97;15.00;;;1.00;99.90;;;;;;5037977;28;20229;-56
2022/11/21 05:26:47;;;;;;;21.90;14.23;;;1.00;99.90;;;;;;5037778;28;20241;-56
2022/11/21 05:29:12;;;;;;;21.63;14.80;;;1.00;99.90;;;;;;5037913;28;20203;-56
2022/11/21 05:31:38;;;;;;;19.40;14.53;;;1.10;99.90;;;;;;5032565;28;20261;-56
2022/11/21 05:34:03;;;;;;;22.10;15.47;;;1.00;99.90;;;;;;5030125;28;20268;-75
2022/11/21 05:36:29;;;;;;;20.10;14.93;;;1.10;99.90;;;;;;5034498;28;20932;-56
2022/11/21 05:38:54;;;;;;;19.87;14.80;;;1.10;99.90;;;;;;5025995;28;20288;-56
2022/11/21 05:41:20;;;;;;;20.63;14.77;;;1.20;99.90;;;;;;5031314;28;20828;-56
2022/11/21 05:43:45;;;;;;;19.87;12.90;;;1.10;99.90;;;;;;5037325;28;20202;-56
2022/11/21 05:46:16;;;;;;;20.33;15.07;;;1.10;99.90;;;;;;5037418;28;20294;-55
2022/11/21 05:48:41;;;;;;;20.97;15.17;;;1.10;99.90;;;;;;5038148;28;20207;-56
2022/11/21 05:51:07;;;;;;;21.23;13.30;;;1.10;99.90;;;;;;5035755;28;20215;-55
2022/11/21 05:53:33;;;;;;;20.17;14.57;;;1.10;99.90;;;;;;5036386;28;20784;-55
2022/11/21 05:56:07;;;;;;;21.53;14.60;;;1.10;99.90;;;;;;5033605;28;20197;-55
2022/11/21 05:58:34;;;;;;;18.53;14.23;;;1.10;99.90;;;;;;5024075;28;20405;-55
2022/11/21 06:01:00;;;;;;;22.43;14.23;;;1.10;99.90;;;;;;5037524;28;20533;-55
2022/11/21 06:03:30;;;;;;;21.27;15.17;;;1.10;99.90;;;;;;5037200;28;20678;-56
2022/11/21 06:06:09;;;;;;;17.20;13.73;;;1.10;99.90;;;;;;5034453;28;20210;-55
2022/11/21 06:08:37;;;;;;;18.43;13.47;;;1.00;99.90;;;;;;5026256;28;20255;-54
2022/11/21 06:11:05;;;;;;;19.97;14.63;;;0.90;99.90;;;;;;5027599;28;20262;-56
2022/11/21 06:13:32;;;;;;;22.97;15.53;;;1.00;99.90;;;;;;5033262;28;20230;-56
2022/11/21 06:16:04;;;;;;;24.23;15.83;;;1.00;99.90;;;;;;5024020;28;20400;-56
2022/11/21 06:18:32;;;;;;;19.23;14.87;;;1.00;99.90;;;;;;5023553;28;20200;-55
2022/11/21 06:21:06;;;;;;;20.10;14.70;;;1.00;99.90;;;;;;5024015;28;20711;-57
2022/11/21 06:23:33;;;;;;;21.33;15.90;;;0.90;99.90;;;;;;5026491;28;20208;-56
2022/11/21 06:26:00;;;;;;;19.97;14.50;;;0.90;99.90;;;;;;5024888;28;20197;-55
2022/11/21 06:28:29;;;;;;;24.30;15.50;;;0.80;99.90;;;;;;5026444;28;20413;-55
2022/11/21 06:30:55;;;;;;;23.63;15.60;;;0.80;99.90;;;;;;5024515;28;20220;-56
2022/11/21 06:33:21;;;;;;;23.70;15.60;;;0.80;99.90;;;;;;5026615;28;20990;-55
2022/11/21 06:35:47;;;;;;;24.60;17.07;;;0.80;99.90;;;;;;5026449;28;20631;-69
2022/11/21 06:38:12;;;;;;;20.80;15.23;;;0.80;99.90;;;;;;5026027;28;20572;-73
2022/11/21 06:40:39;;;;;;;22.47;15.63;;;0.90;99.90;;;;;;5026979;28;20220;-55
2022/11/21 06:43:04;;;;;;;22.83;16.57;;;1.00;99.90;;;;;;5024494;28;20204;-55
2022/11/21 06:45:30;;;;;;;19.30;14.37;;;1.00;99.90;;;;;;5025461;28;20209;-56
2022/11/21 06:47:56;;;;;;;26.07;16.20;;;0.80;99.90;;;;;;5031756;28;20209;-56
2022/11/21 06:50:22;;;;;;;21.63;15.40;;;0.80;99.90;;;;;;5036191;28;20216;-56
2022/11/21 06:52:48;;;;;;;23.07;15.33;;;0.70;99.90;;;;;;5036238;28;20216;-56
2022/11/21 06:55:13;;;;;;;22.07;14.93;;;0.70;99.90;;;;;;5036150;28;20204;-57
2022/11/21 06:57:39;;;;;;;20.30;15.40;;;0.60;99.90;;;;;;5034196;28;20228;-57
2022/11/21 07:00:05;;;;;;;20.30;15.40;;;0.50;99.90;;;;;;5036324;28;20263;-61
2022/11/21 07:02:31;;;;;;;22.57;17.27;;;0.40;99.90;;;;;;5035499;28;20870;-57
2022/11/21 07:04:56;;;;;;;25.50;16.90;;;0.40;99.90;;;;;;5035781;28;20215;-56
2022/11/21 07:07:22;;;;;;;24.80;18.23;;;0.30;99.90;;;;;;5035750;28;20212;-54
2022/11/21 07:09:47;;;;;;;24.70;17.87;;;0.10;99.90;;;;;;5034803;28;20576;-55
2022/11/21 07:14:57;;;;;;;21.87;17.17;;;-0.10;99.90;;;;;;5029327;28;20252;-56
2022/11/21 07:17:22;;;;;;;23.13;17.10;;;-0.20;99.90;;;;;;5036428;28;20205;-55
2022/11/21 07:19:48;;;;;;;27.07;19.27;;;-0.10;99.90;;;;;;5034123;28;20204;-56
2022/11/21 07:22:13;;;;;;;26.63;18.60;;;-0.20;99.90;;;;;;5036050;28;20638;-54
2022/11/21 07:24:39;;;;;;;23.40;17.27;;;-0.30;99.90;;;;;;5035676;28;20734;-55
2022/11/21 07:27:04;;;;;;;27.00;17.10;;;-0.20;99.90;;;;;;5035819;28;20205;-56
2022/11/21 07:29:30;;;;;;;23.53;17.60;;;-0.20;99.90;;;;;;5037512;28;20219;-55
2022/11/21 07:31:55;;;;;;;24.33;17.80;;;-0.30;99.90;;;;;;5032710;28;20230;-56
2022/11/21 07:34:21;;;;;;;30.77;18.33;;;-0.30;99.90;;;;;;5034168;28;20200;-57
2022/11/21 07:36:46;;;;;;;25.17;18.77;;;-0.20;99.90;;;;;;5034653;28;20220;-56
2022/11/21 07:39:12;;;;;;;24.13;17.17;;;-0.20;99.90;;;;;;5035535;28;20255;-56
2022/11/21 07:41:37;;;;;;;25.73;18.87;;;-0.20;99.90;;;;;;5035677;28;20828;-55
2022/11/21 07:44:03;;;;;;;25.33;17.53;;;-0.20;99.90;;;;;;5034354;28;20193;-56
2022/11/21 07:46:28;;;;;;;29.10;18.63;;;-0.20;99.90;;;;;;5026308;28;20249;-56
2022/11/21 07:48:53;;;;;;;22.70;16.43;;;-0.10;99.90;;;;;;5023053;28;20193;-56
2022/11/21 07:51:19;;;;;;;26.67;17.30;;;-0.20;99.90;;;;;;5029760;28;20293;-72
2022/11/21 07:53:44;;;;;;;28.67;18.63;;;-0.30;99.90;;;;;;5029095;28;20957;-53
2022/11/21 07:56:10;;;;;;;29.23;18.37;;;-0.10;99.90;;;;;;5029316;28;20207;-54
2022/11/21 07:58:35;;;;;;;28.13;17.40;;;0.00;99.90;;;;;;5029019;28;20226;-53
2022/11/21 08:01:05;;;;;;;30.93;18.57;;;0.00;99.90;;;;;;5029495;28;20192;-53
2022/11/21 08:03:32;;;;;;;30.33;18.40;;;-0.20;99.90;;;;;;5026616;28;20204;-53
2022/11/21 08:06:02;;;;;;;30.27;18.17;;;-0.30;99.90;;;;;;5029280;28;20654;-54
2022/11/21 08:08:27;;;;;;;28.10;18.07;;;-0.30;99.90;;;;;;5029013;28;20691;-56
2022/11/21 08:10:53;;;;;;;31.97;18.27;;;-0.30;99.90;;;;;;5036955;28;20292;-55
2022/11/21 08:13:18;;;;;;;30.80;17.47;;;-0.30;99.90;;;;;;5031661;28;20235;-56
2022/11/21 08:15:44;;;;;;;27.47;16.13;;;-0.30;99.90;;;;;;5025030;28;20196;-56
2022/11/21 08:18:14;;;;;;;28.70;18.13;;;-0.50;99.90;;;;;;5029403;28;20196;-54
2022/11/21 08:20:41;;;;;;;29.00;17.97;;;-0.50;99.90;;;;;;5029298;28;20205;-57
2022/11/21 08:23:07;;;;;;;30.73;18.47;;;-0.40;99.90;;;;;;5029103;28;20298;-56
2022/11/21 08:25:35;;;;;;;28.67;19.13;;;-0.50;99.90;;;;;;5028235;28;20337;-57
2022/11/21 08:28:01;;;;;;;33.17;18.07;;;-0.60;99.90;;;;;;5027923;28;20205;-56
2022/11/21 08:30:27;;;;;;;34.00;18.93;;;-0.40;99.90;;;;;;5027642;28;20699;-57
2022/11/21 08:32:52;;;;;;;30.33;18.60;;;-0.40;99.90;;;;;;5027718;28;20312;-56
2022/11/21 08:35:18;;;;;;;30.50;19.60;;;-0.40;99.90;;;;;;5027732;28;20942;-56
2022/11/21 08:37:43;;;;;;;31.17;19.00;;;-0.40;99.90;;;;;;5031576;28;20563;-56
2022/11/21 08:40:09;;;;;;;29.13;17.40;;;-0.30;99.90;;;;;;5022238;28;20765;-57
2022/11/21 08:42:36;;;;;;;30.83;17.60;;;-0.20;99.90;;;;;;5028345;28;20285;-56
2022/11/21 08:45:03;;;;;;;31.33;18.27;;;-0.20;99.90;;;;;;5028526;28;20897;-55
2022/11/21 08:47:32;;;;;;;31.47;19.60;;;-0.30;99.90;;;;;;5028759;28;20579;-56
2022/11/21 08:49:57;;;;;;;33.10;19.77;;;-0.30;99.90;;;;;;5029576;28;20291;-57
2022/11/21 08:52:22;;;;;;;27.10;16.63;;;-0.40;99.90;;;;;;5026707;28;20312;-56
2022/11/21 08:54:48;;;;;;;32.33;16.97;;;-0.50;99.90;;;;;;5030914;28;20201;-55
2022/11/21 08:57:13;;;;;;;23.60;15.43;;;-0.70;99.90;;;;;;5028511;28;20226;-56
2022/11/21 08:59:39;;;;;;;23.87;14.27;;;-0.90;99.90;;;;;;5027032;28;20280;-55
2022/11/21 09:02:05;;;;;;;22.07;13.63;;;-1.10;99.90;;;;;;5028623;28;20210;-55
2022/11/21 09:04:30;;;;;;;24.50;14.37;;;-1.20;99.90;;;;;;5022307;28;20287;-56
2022/11/21 09:06:56;;;;;;;19.97;12.40;;;-1.20;99.90;;;;;;5028394;28;20255;-55
2022/11/21 09:09:21;;;;;;;18.53;12.60;;;-1.30;99.90;;;;;;5027830;28;20694;-55
2022/11/21 09:11:47;;;;;;;25.63;14.77;;;-1.40;99.90;;;;;;5027905;28;20200;-55
2022/11/21 09:19:40;;;;;;;23.17;14.00;;;-0.90;99.90;;;;;;5028642;28;20334;-56
2022/11/21 09:22:05;;;;;;;22.93;14.47;;;-0.80;99.90;;;;;;5037732;28;20304;-55
2022/11/21 09:24:31;;;;;;;20.97;12.87;;;-0.90;99.90;;;;;;5037545;28;20650;-56
2022/11/21 09:26:58;;;;;;;23.13;15.13;;;-1.00;99.90;;;;;;5036862;28;20345;-56
2022/11/21 09:29:23;;;;;;;27.17;14.23;;;-1.00;99.90;;;;;;5035543;28;20200;-56
2022/11/21 09:31:49;;;;;;;26.70;16.00;;;-1.00;99.90;;;;;;5036909;28;20570;-55
2022/11/21 09:34:14;;;;;;;24.57;13.87;;;-1.10;99.90;;;;;;5036619;28;20247;-55
2022/11/21 09:36:40;;;;;;;27.43;17.57;;;-1.10;99.90;;;;;;5037323;28;20681;-56
2022/11/21 09:39:05;;;;;;;25.87;15.60;;;-1.10;99.90;;;;;;5037331;28;20201;-55
2022/11/21 09:42:24;;;;;;;27.47;16.60;;;-1.00;99.90;;;;;;5036891;28;20655;-54
2022/11/21 09:45:27;;;;;;;28.30;16.63;;;-0.80;99.90;;;;;;5031246;28;20204;-55
2022/11/21 09:47:54;;;;;;;23.93;13.97;;;-0.60;99.90;;;;;;5026837;28;20637;-55
2022/11/21 09:50:32;;;;;;;22.10;13.97;;;-0.60;99.90;;;;;;5031126;28;20678;-55
2022/11/21 09:53:07;;;;;;;21.40;12.00;;;-0.60;99.90;;;;;;5036196;28;20705;-55
2022/11/21 09:55:47;;;;;;;23.00;12.23;;;-0.50;99.90;;;;;;5034709;28;20194;-60
2022/11/21 09:58:27;;;;;;;18.83;12.17;;;-0.40;99.90;;;;;;5035969;28;20610;-56
2022/11/21 10:00:53;;;;;;;18.07;12.33;;;-0.30;99.90;;;;;;5036255;28;20196;-56
2022/11/21 10:03:22;;;;;;;17.47;11.80;;;-0.20;99.90;;;;;;5036279;28;20200;-55
2022/11/21 10:06:03;;;;;;;17.73;10.30;;;-0.40;99.90;;;;;;5035974;28;20242;-55
2022/11/21 10:08:41;;;;;;;18.47;11.40;;;-0.50;99.90;;;;;;5035033;28;20713;-55
2022/11/21 10:12:35;;;;;;;21.93;11.80;;;-0.50;99.90;;;;;;5035180;28;20290;-56
2022/11/21 10:14:44;;;;;;;19.13;12.40;;;-0.50;99.90;;;;;;5035509;28;20240;-55
2022/11/21 10:17:35;;;;;;;18.17;11.60;;;-0.40;99.90;;;;;;5036058;28;20614;-55
2022/11/21 10:20:20;;;;;;;18.80;11.73;;;-0.40;99.90;;;;;;5028143;28;20221;-57
2022/11/21 10:23:07;;;;;;;15.17;10.10;;;-0.60;99.90;;;;;;5032915;28;20288;-55
2022/11/21 10:25:37;;;;;;;15.60;10.23;;;-0.60;99.90;;;;;;5023855;28;20211;-56
2022/11/21 10:28:16;;;;;;;16.37;10.37;;;-0.50;99.90;;;;;;5023311;28;20738;-56
2022/11/21 10:30:44;;;;;;;20.20;11.37;;;-0.40;99.90;;;;;;5025586;28;20196;-57
2022/11/21 10:33:32;;;;;;;14.47;9.43;;;-0.50;99.90;;;;;;5037446;28;20214;-57
2022/11/21 10:36:11;;;;;;;16.47;10.97;;;-0.40;99.90;;;;;;5036396;28;20210;-57
2022/11/21 10:38:39;;;;;;;17.93;10.73;;;-0.40;99.90;;;;;;5034481;28;20200;-57
2022/11/21 10:41:16;;;;;;;18.20;11.50;;;-0.40;99.90;;;;;;5036218;28;20714;-57
2022/11/21 10:46:58;;;;;;;15.77;11.30;;;-0.10;99.90;;;;;;5033874;28;20215;-56
2022/11/21 10:49:27;;;;;;;16.20;10.27;;;-0.10;99.90;;;;;;5024209;28;20288;-56
2022/11/21 10:52:10;;;;;;;17.80;10.47;;;0.00;99.90;;;;;;5025870;28;20216;-56
2022/11/21 10:55:01;;;;;;;16.07;11.00;;;0.20;99.90;;;;;;5025027;28;20723;-56
2022/11/21 10:57:30;;;;;;;19.47;11.37;;;0.20;99.90;;;;;;5024265;28;20319;-56
2022/11/21 11:00:00;;;;;;;18.10;11.43;;;0.10;99.90;;;;;;5026025;28;20206;-56
2022/11/21 11:02:26;;;;;;;19.80;11.37;;;0.00;99.90;;;;;;5025055;28;20206;-55
2022/11/21 11:05:14;;;;;;;19.80;12.37;;;0.00;99.90;;;;;;5025433;28;20305;-56
2022/11/21 11:07:41;;;;;;;16.63;10.73;;;-0.10;99.90;;;;;;5021177;28;21195;-55
2022/11/21 11:10:23;;;;;;;18.60;11.50;;;-0.30;99.90;;;;;;5026117;28;20259;-56
2022/11/21 11:15:38;;;;;;;17.50;10.07;;;-0.20;99.90;;;;;;5025279;28;20221;-55
2022/11/21 11:18:05;;;;;;;17.80;11.77;;;-0.20;99.90;;;;;;5024347;28;20205;-56
2022/11/21 11:20:35;;;;;;;17.30;11.27;;;-0.10;99.90;;;;;;5022165;28;20201;-56
2022/11/21 11:23:25;;;;;;;18.60;11.43;;;0.00;99.90;;;;;;5027932;28;20621;-56
2022/11/21 11:25:59;;;;;;;16.73;10.30;;;0.20;99.90;;;;;;5029097;28;20195;-54
2022/11/21 11:28:35;;;;;;;15.07;9.80;;;0.10;99.90;;;;;;5032012;28;20619;-54
2022/11/21 11:31:01;;;;;;;14.80;11.13;;;0.20;99.90;;;;;;5030146;28;20241;-54
2022/11/21 11:33:40;;;;;;;16.03;10.13;;;0.10;99.90;;;;;;5029758;28;20713;-55
2022/11/21 11:36:24;;;;;;;20.20;13.50;;;0.00;99.90;;;;;;5029447;28;20291;-54
2022/11/21 11:38:55;;;;;;;17.83;12.90;;;-0.20;99.90;;;;;;5029255;28;20308;-54
2022/11/21 11:47:58;;;;;;;21.73;11.93;;;0.20;99.90;;;;;;5028384;28;20219;-55
2022/11/21 11:50:35;;;;;;;14.03;10.43;;;0.40;99.90;;;;;;5028398;28;20212;-54
2022/11/21 11:53:24;;;;;;;11.60;8.97;;;0.50;99.90;;;;;;5025461;28;20310;-55
2022/11/21 11:55:58;;;;;;;13.20;9.30;;;0.40;99.90;;;;;;5027681;28;20850;-55
2022/11/21 11:58:33;;;;;;;11.27;8.67;;;0.50;99.90;;;;;;5028263;28;20282;-55
2022/11/21 12:01:13;;;;;;;11.53;8.93;;;0.50;99.90;;;;;;5027375;28;20197;-56
2022/11/21 12:03:42;;;;;;;12.53;8.20;;;0.40;99.90;;;;;;5026515;28;20224;-55
2022/11/21 12:06:15;;;;;;;12.07;8.33;;;0.50;99.90;;;;;;5029797;28;20228;-55
2022/11/21 12:08:45;;;;;;;13.20;9.63;;;0.50;99.90;;;;;;5027977;28;20231;-55
2022/11/21 12:15:47;;;;;;;10.97;9.03;;;0.40;99.90;;;;;;5027432;28;20270;-55
2022/11/21 12:17:09;;;;;;;12.43;8.97;;;0.40;99.90;;;;;;5028432;28;20216;-56
2022/11/21 12:19:36;;;;;;;12.77;9.73;;;0.20;99.90;;;;;;5025579;28;20202;-55
2022/11/21 12:22:05;;;;;;;11.23;9.03;;;0.10;99.90;;;;;;5028521;28;20209;-54
2022/11/21 12:24:31;;;;;;;12.97;9.27;;;0.10;99.90;;;;;;5029498;28;20221;-54
2022/11/21 12:27:27;;;;;;;12.17;8.43;;;0.30;99.90;;;;;;5028317;28;20206;-55
2022/11/21 12:30:05;;;;;;;12.53;8.43;;;0.40;99.90;;;;;;5025220;28;20205;-55
2022/11/21 12:32:44;;;;;;;16.27;10.70;;;0.30;99.90;;;;;;5028927;28;20248;-56
2022/11/21 12:35:38;;;;;;;11.53;9.23;;;0.30;99.90;;;;;;5027855;28;20206;-56
2022/11/21 12:38:37;;;;;;;12.60;9.03;;;0.10;99.90;;;;;;5030651;28;20684;-57
2022/11/21 12:44:52;;;;;;;17.10;12.03;;;0.00;99.90;;;;;;5027811;28;20350;-56
2022/11/21 12:54:29;;;;;;;14.67;9.27;;;0.20;99.90;;;;;;5027796;28;20624;-55
2022/11/21 12:57:14;;;;;;;16.03;9.33;;;0.10;99.90;;;;;;5029064;28;20226;-56
2022/11/21 13:00:00;;;;;;;17.77;10.20;;;0.30;99.90;;;;;;5026102;28;20200;-57
2022/11/21 13:03:01;;;;;;;16.23;10.63;;;0.30;99.90;;;;;;5027482;28;20206;-56
2022/11/21 13:05:31;;;;;;;14.23;8.97;;;0.30;99.90;;;;;;5025626;28;20562;-56
2022/11/21 13:08:17;;;;;;;13.83;8.93;;;0.40;99.90;;;;;;5027544;28;20281;-55
2022/11/21 13:11:57;;;;;;;16.97;10.97;;;0.50;99.90;;;;;;5026817;28;20241;-54
2022/11/21 13:13:43;;;;;;;14.93;10.37;;;0.60;99.90;;;;;;5027519;28;20233;-54
2022/11/21 13:16:35;;;;;;;14.87;9.97;;;0.60;99.90;;;;;;5027008;28;20213;-54
2022/11/21 13:19:09;;;;;;;15.47;10.90;;;0.50;99.90;;;;;;5024885;28;20208;-73
2022/11/21 13:21:46;;;;;;;15.70;9.90;;;0.60;99.90;;;;;;5028426;28;20190;-57
2022/11/21 13:24:43;;;;;;;14.30;10.03;;;0.60;99.90;;;;;;5027871;28;20205;-56
2022/11/21 13:27:41;;;;;;;14.07;9.13;;;0.60;99.90;;;;;;5024974;28;20240;-57
2022/11/21 13:30:06;;;;;;;14.43;10.80;;;0.70;99.90;;;;;;5027112;28;20218;-57